Time;durP1;ratioP1;P1;durP2;ratioP2;P2;SDS_P1;SDS_P2;PMS_P1;PMS_P2;Temp;Humidity;BMP_temperature;BMP_pressure;BME280_temperature;BME280_humidity;BME280_pressure;Samples;Min_cycle;Max_cycle;Signal;HPM_P1;HPM_P2
2024/04/10 00:01:49;;;;;;;1.67;1.07;;;;;;;9.38;82.56;98711.47;5491626;26;20228;-78
2024/04/10 00:04:17;;;;;;;1.60;0.83;;;;;;;9.43;81.06;98698.91;5491475;26;20215;-78
2024/04/10 00:06:43;;;;;;;2.53;1.30;;;;;;;9.42;81.07;98702.47;5491521;26;20673;-78
2024/04/10 00:09:11;;;;;;;3.13;1.40;;;;;;;9.46;80.81;98714.53;5491171;26;20303;-78
2024/04/10 00:11:36;;;;;;;2.73;1.10;;;;;;;9.42;81.37;98728.84;5489327;26;20227;-77
2024/04/10 00:14:05;;;;;;;2.43;0.90;;;;;;;9.39;81.42;98739.56;5487629;26;20334;-78
2024/04/10 00:16:33;;;;;;;2.50;0.97;;;;;;;9.42;80.40;98744.69;5488091;26;20277;-77
2024/04/10 00:19:01;;;;;;;1.67;0.80;;;;;;;9.41;80.83;98746.47;5488122;26;20250;-78
2024/04/10 00:21:30;;;;;;;2.37;0.97;;;;;;;9.43;80.59;98746.38;5490188;26;20356;-78
2024/04/10 00:23:59;;;;;;;2.53;0.93;;;;;;;9.42;81.00;98744.69;5491172;26;20335;-78
2024/04/10 00:26:24;;;;;;;1.00;0.90;;;;;;;9.36;81.06;98747.66;5494605;26;20220;-78
2024/04/10 00:28:52;;;;;;;2.17;1.17;;;;;;;9.33;80.81;98742.53;5495809;26;20585;-78
2024/04/10 00:31:18;;;;;;;2.83;0.93;;;;;;;9.28;80.73;98757.75;5495455;26;20251;-78
2024/04/10 00:33:49;;;;;;;2.83;0.90;;;;;;;9.24;81.37;98750.97;5495683;26;20292;-78
2024/04/10 00:36:15;;;;;;;1.60;1.00;;;;;;;9.21;81.48;98751.09;5503218;26;20319;-78
2024/04/10 00:38:43;;;;;;;2.80;1.00;;;;;;;9.13;82.08;98755.97;5505803;26;20227;-78
2024/04/10 00:41:09;;;;;;;1.83;1.00;;;;;;;9.07;82.57;98775.56;5505234;26;20297;-78
2024/04/10 00:43:37;;;;;;;2.47;1.20;;;;;;;9.04;83.25;98775.75;5502949;26;20227;-78
2024/04/10 00:46:09;;;;;;;1.70;0.70;;;;;;;9.01;83.74;98781.16;5502344;26;20233;-78
2024/04/10 00:48:37;;;;;;;2.23;0.90;;;;;;;8.94;84.54;98792.97;5494925;26;20219;-78
2024/04/10 00:51:07;;;;;;;1.87;0.87;;;;;;;8.89;85.15;98791.53;5490635;26;20350;-78
2024/04/10 00:53:36;;;;;;;2.27;1.00;;;;;;;8.81;85.71;98793.72;5494038;26;20275;-78
2024/04/10 00:56:03;;;;;;;1.23;1.00;;;;;;;8.80;86.41;98791.97;5493537;26;20560;-78
2024/04/10 00:58:32;;;;;;;4.60;1.03;;;;;;;8.71;86.59;98801.25;5493917;26;20710;-78
2024/04/10 01:00:58;;;;;;;2.80;1.10;;;;;;;8.60;87.24;98800.06;5492721;26;20473;-78
2024/04/10 01:03:26;;;;;;;3.23;1.00;;;;;;;8.52;87.58;98789.91;5493041;26;20227;-78
2024/04/10 01:05:56;;;;;;;2.30;0.90;;;;;;;8.48;87.76;98790.16;5493605;26;20219;-78
2024/04/10 01:08:28;;;;;;;1.20;1.00;;;;;;;8.42;87.83;98790.44;5493761;26;20254;-78
2024/04/10 01:10:53;;;;;;;1.97;0.70;;;;;;;8.35;88.30;98794.31;5493496;26;20239;-78
2024/04/10 01:13:22;;;;;;;3.63;1.00;;;;;;;8.27;88.77;98796.50;5493960;26;20219;-78
2024/04/10 01:15:47;;;;;;;2.33;0.70;;;;;;;8.18;89.45;98802.16;5494028;26;20271;-78
2024/04/10 01:18:15;;;;;;;4.40;1.50;;;;;;;8.13;89.98;98809.44;5494472;26;20219;-78
2024/04/10 01:20:41;;;;;;;0.83;0.60;;;;;;;8.12;89.91;98813.00;5493544;26;20282;-78
2024/04/10 01:23:12;;;;;;;0.80;0.77;;;;;;;8.10;89.36;98804.34;5493890;26;20445;-78
2024/04/10 01:25:37;;;;;;;2.63;1.13;;;;;;;8.05;89.69;98812.47;5494509;26;20275;-78
2024/04/10 01:28:06;;;;;;;1.77;1.00;;;;;;;8.08;89.68;98819.34;5494083;26;20326;-78
2024/04/10 01:30:32;;;;;;;2.80;0.97;;;;;;;8.01;90.13;98828.44;5493984;26;20273;-78
2024/04/10 01:33:00;;;;;;;2.30;1.00;;;;;;;7.97;90.76;98830.38;5493927;26;20625;-78
2024/04/10 01:35:26;;;;;;;1.90;0.80;;;;;;;8.01;90.96;98829.31;5493360;26;20219;-78
2024/04/10 01:37:54;;;;;;;3.10;1.00;;;;;;;8.04;90.79;98846.75;5490923;26;20712;-78
2024/04/10 01:40:23;;;;;;;5.90;1.17;;;;;;;8.09;89.62;98842.13;5493009;26;20231;-78
2024/04/10 01:42:51;;;;;;;3.03;0.90;;;;;;;8.11;87.89;98838.50;5493321;26;20262;-78
2024/04/10 01:45:17;;;;;;;2.70;0.93;;;;;;;8.13;87.00;98846.28;5493880;26;20239;-78
2024/04/10 01:47:45;;;;;;;2.00;1.03;;;;;;;8.15;86.51;98831.28;5492723;26;20589;-78
2024/04/10 01:50:11;;;;;;;2.23;0.93;;;;;;;8.12;86.56;98828.78;5493137;26;20353;-78
2024/04/10 01:52:39;;;;;;;2.07;0.83;;;;;;;8.11;86.07;98832.38;5493781;26;20765;-78
2024/04/10 01:55:06;;;;;;;2.80;0.90;;;;;;;8.07;86.73;98836.06;5490667;26;20623;-76
2024/04/10 01:57:37;;;;;;;2.40;0.90;;;;;;;8.07;87.11;98841.31;5456536;26;20239;-77
2024/04/10 02:00:03;;;;;;;1.53;0.70;;;;;;;7.97;87.27;98838.28;5489944;26;20254;-78
2024/04/10 02:02:31;;;;;;;2.80;1.00;;;;;;;7.93;87.02;98846.41;5463805;26;20226;-78
2024/04/10 02:04:57;;;;;;;1.90;1.00;;;;;;;7.85;86.99;98841.50;5495484;26;20665;-78
2024/04/10 02:07:25;;;;;;;3.00;0.70;;;;;;;7.82;86.64;98843.41;5488378;26;20323;-77
2024/04/10 02:09:50;;;;;;;1.80;0.90;;;;;;;7.84;86.19;98854.75;5488108;26;20365;-77
2024/04/10 02:12:19;;;;;;;3.63;1.20;;;;;;;7.84;86.45;98857.38;5488712;26;20223;-77
2024/04/10 02:14:47;;;;;;;2.13;1.00;;;;;;;7.93;85.68;98864.81;5488805;26;20321;-77
2024/04/10 02:17:15;;;;;;;1.83;0.73;;;;;;;7.90;85.07;98860.56;5488618;26;20223;-78
2024/04/10 02:19:40;;;;;;;2.77;0.70;;;;;;;7.89;85.00;98858.84;5488122;26;20353;-77
2024/04/10 02:22:08;;;;;;;3.97;1.03;;;;;;;7.89;85.18;98863.28;5489667;26;20223;-77
2024/04/10 02:24:34;;;;;;;3.23;1.10;;;;;;;7.81;86.08;98875.91;5458980;26;20270;-78
2024/04/10 02:27:02;;;;;;;2.43;1.03;;;;;;;7.75;85.88;98871.81;5504113;26;20223;-77
2024/04/10 02:29:28;;;;;;;1.67;0.80;;;;;;;7.73;86.41;98884.16;5502624;26;20231;-77
2024/04/10 02:31:59;;;;;;;1.20;0.80;;;;;;;7.69;86.95;98884.38;5494410;26;20231;-77
2024/04/10 02:34:25;;;;;;;2.17;1.00;;;;;;;7.73;85.62;98885.97;5492078;26;20215;-77
2024/04/10 02:36:53;;;;;;;2.60;1.00;;;;;;;7.77;85.61;98884.91;5490051;26;20227;-77
2024/04/10 02:39:19;;;;;;;4.60;0.97;;;;;;;7.74;85.51;98878.00;5489064;26;20319;-77
2024/04/10 02:41:49;;;;;;;2.93;1.40;;;;;;;7.74;86.30;98892.91;5489060;26;20599;-77
2024/04/10 02:44:14;;;;;;;1.43;0.77;;;;;;;7.73;86.44;98897.31;5456683;26;20586;-77
2024/04/10 02:46:42;;;;;;;2.13;1.00;;;;;;;7.75;86.80;98905.16;5487621;26;20227;-77
2024/04/10 02:49:11;;;;;;;2.67;0.90;;;;;;;7.80;87.14;98895.28;5487261;26;20223;-77
2024/04/10 02:51:39;;;;;;;2.10;0.83;;;;;;;7.82;86.62;98890.78;5487436;26;20334;-77
2024/04/10 02:54:05;;;;;;;3.00;1.07;;;;;;;7.87;86.08;98886.16;5488191;26;20696;-77
2024/04/10 02:56:33;;;;;;;2.10;0.80;;;;;;;7.91;85.57;98882.47;5488098;26;20234;-77
2024/04/10 02:58:58;;;;;;;4.03;1.10;;;;;;;7.91;85.39;98893.00;5486567;26;20621;-77
2024/04/10 03:01:26;;;;;;;1.77;0.90;;;;;;;7.91;85.59;98891.22;5487663;26;20342;-77
2024/04/10 03:03:52;;;;;;;1.40;0.90;;;;;;;7.97;85.53;98887.47;5487628;26;20300;-77
2024/04/10 03:06:23;;;;;;;2.00;0.80;;;;;;;8.04;85.43;98881.84;5487682;26;20223;-77
2024/04/10 03:08:50;;;;;;;3.83;0.97;;;;;;;8.08;84.83;98893.91;5487687;26;20223;-77
2024/04/10 03:11:18;;;;;;;2.57;1.03;;;;;;;8.08;84.90;98893.91;5487305;26;20270;-77
2024/04/10 03:13:44;;;;;;;2.40;1.00;;;;;;;8.08;84.59;98896.53;5486994;26;20227;-77
2024/04/10 03:16:12;;;;;;;4.20;0.87;;;;;;;8.05;84.57;98885.31;5488387;26;20750;-77
2024/04/10 03:18:38;;;;;;;2.90;1.30;;;;;;;7.98;85.24;98883.88;5488097;26;20254;-77
2024/04/10 03:22:38;;;;;;;2.27;0.80;;;;;;;7.97;84.85;98883.03;5581321;25;21198;-77
2024/04/10 03:25:05;;;;;;;1.57;0.70;;;;;;;7.91;84.90;98882.47;5581273;25;20586;-77
2024/04/10 03:27:33;;;;;;;1.53;0.87;;;;;;;7.88;85.13;98901.03;5581924;25;20759;-77
2024/04/10 03:30:01;;;;;;;1.67;0.73;;;;;;;7.84;85.96;98916.09;5581440;25;20266;-77
2024/04/10 03:32:30;;;;;;;2.40;1.13;;;;;;;7.83;86.47;98910.94;5581394;25;20228;-77
2024/04/10 03:34:55;;;;;;;3.93;2.00;;;;;;;7.81;86.52;98912.75;5581278;25;20220;-77
2024/04/10 03:37:23;;;;;;;3.17;0.90;;;;;;;7.81;86.51;98916.25;5581264;25;20268;-77
2024/04/10 03:39:52;;;;;;;4.30;1.37;;;;;;;7.79;86.70;98930.41;5580908;25;20551;-77
2024/04/10 03:42:20;;;;;;;1.87;1.00;;;;;;;7.79;86.80;98935.69;5581274;25;20681;-77
2024/04/10 03:44:48;;;;;;;1.67;0.70;;;;;;;7.77;87.40;98932.28;5581473;25;20360;-77
2024/04/10 03:47:16;;;;;;;1.83;1.10;;;;;;;7.73;87.49;98925.44;5581244;25;20740;-77
2024/04/10 03:49:44;;;;;;;1.17;0.90;;;;;;;7.70;87.07;98936.06;5580804;25;20247;-77
2024/04/10 03:52:12;;;;;;;5.27;2.37;;;;;;;7.72;87.23;98939.50;5580931;25;20345;-76
2024/04/10 03:54:38;;;;;;;2.07;1.03;;;;;;;7.73;86.76;98933.31;5580855;25;20687;-77
2024/04/10 03:57:09;;;;;;;1.73;0.83;;;;;;;7.70;86.34;98941.34;5579123;25;20228;-77
2024/04/10 03:59:34;;;;;;;1.87;0.80;;;;;;;7.62;86.47;98948.72;5580841;25;20240;-77
2024/04/10 04:02:03;;;;;;;3.13;1.00;;;;;;;7.64;87.22;98957.41;5580884;25;20220;-77
2024/04/10 04:04:28;;;;;;;1.60;1.00;;;;;;;7.60;87.93;98955.84;5581087;25;20299;-77
2024/04/10 04:06:57;;;;;;;5.07;1.13;;;;;;;7.61;88.28;98957.53;5580664;25;20224;-77
2024/04/10 04:09:22;;;;;;;1.90;0.90;;;;;;;7.60;87.96;98966.38;5580572;25;20276;-77
2024/04/10 04:11:51;;;;;;;3.67;1.00;;;;;;;7.60;88.06;98972.47;5580135;25;20334;-77
2024/04/10 04:14:19;;;;;;;2.73;0.90;;;;;;;7.67;88.23;98968.66;5580885;25;20471;-77
2024/04/10 04:16:47;;;;;;;3.73;1.13;;;;;;;7.69;88.10;98973.84;5580796;25;20571;-77
2024/04/10 04:19:12;;;;;;;3.50;1.23;;;;;;;7.76;87.62;98983.16;5579953;25;20252;-77
2024/04/10 04:21:40;;;;;;;2.53;1.10;;;;;;;7.76;87.94;98994.56;5580023;25;20328;-77
2024/04/10 04:24:06;;;;;;;4.20;1.13;;;;;;;7.78;87.30;98986.59;5580470;25;20280;-78
2024/04/10 04:26:34;;;;;;;2.97;0.90;;;;;;;7.83;86.87;98995.16;5580609;25;20320;-77
2024/04/10 04:29:00;;;;;;;2.33;1.10;;;;;;;7.84;86.82;98999.50;5580307;25;20670;-77
2024/04/10 04:31:31;;;;;;;2.47;0.90;;;;;;;7.85;87.15;98998.56;5579935;25;20244;-77
2024/04/10 04:33:56;;;;;;;1.77;1.20;;;;;;;7.87;87.66;99012.50;5563376;25;20280;-77
2024/04/10 04:36:25;;;;;;;2.10;0.90;;;;;;;7.87;87.56;99013.38;5564424;25;20704;-77
2024/04/10 04:38:50;;;;;;;2.70;1.07;;;;;;;7.93;87.29;99017.47;5564351;25;20320;-77
2024/04/10 04:41:18;;;;;;;2.03;1.10;;;;;;;8.00;87.11;99013.66;5563192;25;20586;-77
2024/04/10 04:43:44;;;;;;;2.90;0.80;;;;;;;8.05;86.30;99009.03;5564078;25;20302;-77
2024/04/10 04:46:12;;;;;;;1.93;0.93;;;;;;;7.93;86.61;99009.59;5563483;25;20233;-77
2024/04/10 04:48:40;;;;;;;2.83;1.37;;;;;;;7.86;87.31;99024.81;5563258;25;20329;-77
2024/04/10 04:51:10;;;;;;;3.10;1.40;;;;;;;7.78;88.06;99023.44;5563408;25;20233;-77
2024/04/10 04:53:36;;;;;;;3.13;1.70;;;;;;;7.73;88.66;99025.41;5564858;25;20224;-77
2024/04/10 04:56:04;;;;;;;2.83;1.00;;;;;;;7.70;88.52;99021.13;5565350;25;20221;-77
2024/04/10 04:58:29;;;;;;;4.87;1.13;;;;;;;7.73;88.21;99020.16;5563914;25;20217;-77
2024/04/10 05:00:58;;;;;;;2.47;1.20;;;;;;;7.70;88.06;99023.78;5562313;25;20313;-77
2024/04/10 05:06:09;;;;;;;5.63;1.10;;;;;;;7.58;89.88;99047.09;5563066;25;20278;-77
2024/04/10 05:08:38;;;;;;;1.87;1.20;;;;;;;7.54;90.41;99051.66;5563201;25;20686;-77
2024/04/10 05:11:09;;;;;;;2.70;0.90;;;;;;;7.52;90.54;99063.16;5562914;25;20629;-77
2024/04/10 05:13:35;;;;;;;4.23;1.20;;;;;;;7.55;90.41;99061.28;5563267;25;20768;-77
2024/04/10 05:16:03;;;;;;;2.97;1.20;;;;;;;7.60;89.94;99051.38;5563325;25;20260;-77
2024/04/10 05:18:29;;;;;;;1.53;0.93;;;;;;;7.60;90.49;99058.44;5563541;25;20225;-77
2024/04/10 05:20:57;;;;;;;4.63;1.10;;;;;;;7.65;89.98;99057.31;5562720;25;20332;-78
2024/04/10 05:23:25;;;;;;;3.60;1.30;;;;;;;7.71;90.10;99058.84;5562884;25;20233;-77
2024/04/10 05:25:54;;;;;;;2.43;0.90;;;;;;;7.78;89.85;99057.66;5563058;25;20252;-77
2024/04/10 05:28:23;;;;;;;3.30;1.20;;;;;;;7.81;90.13;99065.41;5563438;25;20255;-77
2024/04/10 05:30:51;;;;;;;2.57;1.47;;;;;;;7.87;90.69;99075.66;5562626;25;20793;-77
2024/04/10 05:33:17;;;;;;;2.77;1.17;;;;;;;8.00;90.57;99082.09;5562858;25;20281;-77
2024/04/10 05:35:45;;;;;;;3.13;1.20;;;;;;;8.05;89.41;99083.63;5562955;25;20320;-77
2024/04/10 05:38:10;;;;;;;2.93;1.20;;;;;;;8.12;89.29;99071.91;5563613;25;20803;-77
2024/04/10 05:40:41;;;;;;;2.10;1.30;;;;;;;8.33;89.12;99078.00;5562796;25;20244;-76
2024/04/10 05:43:06;;;;;;;2.00;1.10;;;;;;;8.41;87.56;99062.69;5563484;25;20260;-77
2024/04/10 05:45:36;;;;;;;1.80;1.10;;;;;;;8.47;86.99;99068.56;5561478;25;20320;-77
2024/04/10 05:48:01;;;;;;;2.03;1.17;;;;;;;8.53;86.74;99072.69;5563634;25;20406;-77
2024/04/10 05:50:30;;;;;;;5.93;1.53;;;;;;;8.65;85.37;99072.09;5562855;25;20282;-77
2024/04/10 05:52:55;;;;;;;5.33;1.20;;;;;;;8.68;84.80;99077.22;5563315;25;20311;-77
2024/04/10 05:55:23;;;;;;;4.60;1.50;;;;;;;8.70;84.35;99080.66;5562998;25;20233;-77
2024/04/10 05:57:51;;;;;;;1.20;1.10;;;;;;;8.71;84.77;99087.63;5563371;25;20225;-77
2024/04/10 06:00:22;;;;;;;2.73;1.10;;;;;;;8.69;84.95;99089.50;5561216;25;20245;-77
2024/04/10 06:02:48;;;;;;;2.23;1.10;;;;;;;8.72;84.73;99090.22;5563585;25;20277;-77
2024/04/10 06:05:17;;;;;;;3.07;1.40;;;;;;;8.72;84.32;99091.97;5563190;25;20315;-77
2024/04/10 06:07:44;;;;;;;2.53;1.20;;;;;;;8.74;84.74;99105.94;5563495;25;20277;-77
2024/04/10 06:10:14;;;;;;;3.23;1.33;;;;;;;8.75;84.21;99107.66;5562621;25;20233;-77
2024/04/10 06:12:39;;;;;;;2.37;1.30;;;;;;;8.77;84.40;99114.56;5563071;25;20691;-78
2024/04/10 06:15:10;;;;;;;7.60;1.50;;;;;;;8.82;83.56;99111.72;5566621;25;20221;-78
2024/04/10 06:17:36;;;;;;;2.00;1.10;;;;;;;8.75;83.89;99115.56;5564904;25;20276;-77
2024/04/10 06:20:06;;;;;;;3.50;1.27;;;;;;;8.79;84.79;99128.53;5561406;25;20328;-76
2024/04/10 06:22:31;;;;;;;3.17;1.60;;;;;;;8.78;83.47;99125.97;5561776;25;20217;-76
2024/04/10 06:25:00;;;;;;;2.80;1.10;;;;;;;8.73;84.34;99134.09;5562144;25;20263;-76
2024/04/10 06:27:25;;;;;;;2.80;1.30;;;;;;;8.70;84.44;99136.84;5562217;25;20695;-76
2024/04/10 06:29:53;;;;;;;4.27;1.43;;;;;;;8.72;84.37;99134.16;5567986;25;20267;-74
2024/04/10 06:32:22;;;;;;;3.93;1.30;;;;;;;8.68;85.37;99137.84;5562663;25;20281;-75
2024/04/10 06:34:50;;;;;;;3.97;1.30;;;;;;;8.65;85.15;99140.63;5562148;25;20224;-75
2024/04/10 06:37:16;;;;;;;6.10;1.80;;;;;;;8.71;84.88;99148.25;5563875;25;20413;-77
2024/04/10 06:39:45;;;;;;;4.60;1.30;;;;;;;8.74;84.35;99143.69;5563395;25;20351;-77
2024/04/10 06:42:11;;;;;;;3.27;1.30;;;;;;;8.81;83.98;99131.09;5561834;25;20225;-77
2024/04/10 06:44:39;;;;;;;4.43;1.33;;;;;;;8.83;84.02;99150.31;5562555;25;20791;-77
2024/04/10 06:47:05;;;;;;;2.83;1.40;;;;;;;8.86;83.85;99153.69;5561394;25;20259;-78
2024/04/10 06:49:36;;;;;;;2.50;1.20;;;;;;;9.01;83.74;99144.19;5563779;25;20233;-78
2024/04/10 06:52:01;;;;;;;3.53;1.20;;;;;;;9.08;83.84;99150.91;5553529;25;20332;-78
2024/04/10 06:54:29;;;;;;;4.20;1.20;;;;;;;9.17;82.80;99153.13;5531021;25;20689;-78
2024/04/10 06:56:56;;;;;;;2.03;1.37;;;;;;;9.20;81.72;99150.31;5528400;25;20282;-78
2024/04/10 06:59:24;;;;;;;3.87;1.43;;;;;;;9.24;81.91;99157.16;5527595;25;20249;-78
2024/04/10 07:01:52;;;;;;;3.67;1.30;;;;;;;9.31;80.83;99159.41;5525094;25;20313;-80
2024/04/10 07:04:17;;;;;;;2.23;1.20;;;;;;;9.34;79.31;99158.41;5530190;25;20354;-79
2024/04/10 07:06:49;;;;;;;5.40;1.60;;;;;;;9.41;79.81;99165.09;5532841;25;20233;-78
2024/04/10 07:09:14;;;;;;;4.20;1.60;;;;;;;9.50;79.68;99154.97;5532688;25;20264;-78
2024/04/10 07:11:42;;;;;;;4.30;1.20;;;;;;;9.52;78.90;99168.09;5530423;25;20230;-78
2024/04/10 07:14:08;;;;;;;4.67;1.37;;;;;;;9.53;78.61;99156.59;5529550;25;20739;-78
2024/04/10 07:16:36;;;;;;;4.87;1.67;;;;;;;9.59;79.00;99164.22;5528604;25;20330;-78
2024/04/10 07:19:02;;;;;;;4.07;1.60;;;;;;;9.68;78.78;99158.50;5529206;25;20264;-78
2024/04/10 07:21:30;;;;;;;3.63;1.27;;;;;;;9.66;78.34;99165.66;5527212;26;20242;-78
2024/04/10 07:23:58;;;;;;;4.50;1.40;;;;;;;9.61;77.27;99162.38;5530021;25;20281;-78
2024/04/10 07:26:27;;;;;;;1.97;1.13;;;;;;;9.69;78.19;99168.13;5526236;25;20318;-79
2024/04/10 07:28:53;;;;;;;2.27;1.10;;;;;;;9.80;76.51;99160.53;5525161;25;20230;-80
2024/04/10 07:31:22;;;;;;;8.10;2.00;;;;;;;9.88;76.63;99166.28;5524905;25;20233;-78
2024/04/10 07:33:49;;;;;;;6.43;1.50;;;;;;;9.98;76.67;99172.81;5526755;25;20603;-80
2024/04/10 07:36:20;;;;;;;5.87;1.53;;;;;;;10.11;76.07;99171.28;5527638;25;20550;-78
2024/04/10 07:38:46;;;;;;;4.13;1.70;;;;;;;10.15;74.78;99170.22;5528246;25;20273;-78
2024/04/10 07:41:17;;;;;;;3.40;1.33;;;;;;;10.22;73.99;99174.25;5527587;25;20253;-78
2024/04/10 07:43:44;;;;;;;6.17;1.77;;;;;;;10.25;74.21;99176.72;5527809;25;20274;-78
2024/04/10 07:46:13;;;;;;;4.67;1.60;;;;;;;10.31;74.63;99176.41;5527859;25;20224;-78
2024/04/10 07:48:40;;;;;;;5.10;1.10;;;;;;;10.35;74.75;99177.97;5527360;25;20343;-78
2024/04/10 07:51:09;;;;;;;3.47;1.50;;;;;;;10.42;74.27;99184.63;5527280;25;20282;-78
2024/04/10 07:53:36;;;;;;;4.67;1.80;;;;;;;10.38;72.57;99177.78;5531837;25;20220;-79
2024/04/10 07:56:07;;;;;;;6.80;1.87;;;;;;;10.32;71.81;99176.31;5532382;25;20230;-79
2024/04/10 07:58:37;;;;;;;6.00;2.10;;;;;;;10.27;72.53;99193.38;5532715;25;20271;-79
2024/04/10 08:01:05;;;;;;;3.80;1.30;;;;;;;10.30;72.19;99194.06;5533827;25;20772;-79
2024/04/10 08:03:31;;;;;;;6.50;1.60;;;;;;;10.33;73.41;99209.75;5533434;25;20280;-79
2024/04/10 08:06:01;;;;;;;5.83;1.80;;;;;;;10.33;71.60;99200.97;5532791;25;20240;-79
2024/04/10 08:08:27;;;;;;;4.70;1.87;;;;;;;10.28;72.08;99208.28;5537694;25;20294;-80
2024/04/10 08:11:00;;;;;;;5.03;2.13;;;;;;;10.32;72.52;99212.44;5538803;25;20238;-79
2024/04/10 08:13:25;;;;;;;6.47;2.00;;;;;;;10.23;71.86;99213.81;5538937;25;20220;-79
2024/04/10 08:16:01;;;;;;;6.30;1.77;;;;;;;10.12;71.67;99216.13;5538770;25;20268;-79
2024/04/10 08:18:27;;;;;;;5.63;1.80;;;;;;;10.13;72.00;99227.53;5539648;25;20371;-79
2024/04/10 08:21:02;;;;;;;6.00;2.20;;;;;;;10.16;72.42;99230.03;5538712;25;20238;-79
2024/04/10 08:23:29;;;;;;;4.50;2.20;;;;;;;10.06;72.84;99226.13;5539037;25;20266;-80
2024/04/10 08:25:57;;;;;;;6.43;2.40;;;;;;;10.03;72.36;99234.19;5539831;25;20347;-79
2024/04/10 08:28:25;;;;;;;5.47;2.30;;;;;;;10.06;72.90;99220.84;5540319;25;20224;-80
2024/04/10 08:30:53;;;;;;;5.47;2.13;;;;;;;10.11;73.13;99227.63;5539011;25;20340;-79
2024/04/10 08:33:23;;;;;;;3.73;2.27;;;;;;;10.10;71.97;99215.31;5539853;25;20739;-80
2024/04/10 08:35:59;;;;;;;4.53;2.17;;;;;;;10.20;71.79;99221.00;5539927;25;20228;-79
2024/04/10 08:38:25;;;;;;;5.53;2.40;;;;;;;10.35;69.72;99214.94;5534389;25;20227;-79
2024/04/10 08:40:55;;;;;;;7.20;2.40;;;;;;;10.49;69.03;99201.88;5527299;25;20278;-79
2024/04/10 08:43:22;;;;;;;4.00;2.10;;;;;;;10.54;68.33;99202.50;5527887;25;20270;-79
2024/04/10 08:45:50;;;;;;;6.33;2.07;;;;;;;10.62;69.14;99214.38;5527624;25;20240;-80
2024/04/10 08:48:17;;;;;;;5.07;2.20;;;;;;;10.89;69.17;99217.38;5528912;25;20215;-80
2024/04/10 08:50:48;;;;;;;3.13;1.80;;;;;;;11.16;68.31;99215.88;5527387;25;20237;-80
2024/04/10 08:53:14;;;;;;;7.20;2.00;;;;;;;11.35;64.89;99195.38;5528521;25;20298;-79
2024/04/10 08:55:46;;;;;;;4.53;2.00;;;;;;;11.53;64.64;99194.38;5527575;25;20264;-78
2024/04/10 08:58:12;;;;;;;3.20;1.83;;;;;;;11.63;63.54;99191.13;5529316;25;20218;-79
2024/04/10 09:00:43;;;;;;;3.80;1.83;;;;;;;11.89;62.50;99187.00;5528149;25;20256;-79
2024/04/10 09:03:09;;;;;;;4.47;1.70;;;;;;;12.07;62.05;99194.75;5526978;25;20564;-79
2024/04/10 09:05:38;;;;;;;8.63;2.20;;;;;;;12.40;60.68;99186.63;5526397;25;20303;-79
2024/04/10 09:08:07;;;;;;;6.13;2.33;;;;;;;12.52;59.40;99191.16;5528539;25;20664;-80
2024/04/10 09:10:35;;;;;;;3.87;1.80;;;;;;;12.29;59.89;99203.13;5526778;25;20281;-80
2024/04/10 09:13:04;;;;;;;5.43;2.37;;;;;;;12.12;61.34;99226.28;5526663;25;20294;-80
2024/04/10 09:15:33;;;;;;;8.27;2.30;;;;;;;12.03;61.15;99216.19;5530932;25;20234;-80
2024/04/10 09:17:59;;;;;;;4.37;1.97;;;;;;;11.85;61.24;99227.84;5534322;26;20276;-80
2024/04/10 09:20:27;;;;;;;5.17;1.70;;;;;;;11.80;62.38;99241.34;5535459;25;20233;-80
2024/04/10 09:23:01;;;;;;;5.70;2.07;;;;;;;11.74;62.32;99235.56;5532828;25;20222;-80
2024/04/10 09:25:32;;;;;;;3.20;1.63;;;;;;;11.94;61.53;99245.88;5526580;25;20222;-78
2024/04/10 09:28:02;;;;;;;5.17;1.97;;;;;;;11.99;61.89;99251.78;5524954;25;20281;-78
2024/04/10 09:30:31;;;;;;;4.87;1.67;;;;;;;11.91;59.16;99225.72;5524435;25;20727;-78
2024/04/10 09:32:58;;;;;;;4.77;2.30;;;;;;;11.88;57.74;99212.66;5523643;25;20337;-78
2024/04/10 09:35:28;;;;;;;4.53;1.40;;;;;;;11.81;58.78;99226.34;5525976;25;20762;-79
2024/04/10 09:37:56;;;;;;;4.80;1.90;;;;;;;12.02;59.26;99233.03;5534635;25;20222;-78
2024/04/10 09:40:25;;;;;;;5.13;2.13;;;;;;;12.14;58.53;99235.00;5524279;25;20230;-79
2024/04/10 09:43:00;;;;;;;2.97;1.57;;;;;;;12.32;56.64;99216.22;5524791;25;20293;-78
2024/04/10 09:45:34;;;;;;;6.60;1.83;;;;;;;12.60;56.44;99213.63;5524547;25;20294;-78
2024/04/10 09:48:04;;;;;;;6.27;1.70;;;;;;;12.74;55.36;99210.13;5522423;25;20283;-78
2024/04/10 09:50:36;;;;;;;4.57;1.50;;;;;;;12.80;54.21;99196.50;5522585;25;20242;-79
2024/04/10 09:53:03;;;;;;;6.37;1.70;;;;;;;12.87;54.59;99211.09;5523705;25;20362;-79
2024/04/10 09:55:33;;;;;;;3.10;1.73;;;;;;;13.13;55.30;99219.19;5523250;25;20260;-79
2024/04/10 09:58:03;;;;;;;4.20;1.90;;;;;;;13.40;55.18;99221.91;5523815;25;20225;-79
2024/04/10 10:00:32;;;;;;;4.43;1.40;;;;;;;13.40;51.40;99216.59;5523456;25;20292;-79
2024/04/10 10:03:05;;;;;;;2.77;1.57;;;;;;;13.67;52.10;99230.75;5523193;25;20455;-78
2024/04/10 10:05:33;;;;;;;2.23;1.20;;;;;;;14.00;49.95;99212.66;5525378;25;20222;-80
2024/04/10 10:08:07;;;;;;;6.00;1.40;;;;;;;14.04;48.82;99235.38;5528349;25;20234;-80
2024/04/10 10:10:45;;;;;;;2.93;1.23;;;;;;;13.65;48.52;99230.03;5539550;25;20961;-81
2024/04/10 10:13:14;;;;;;;3.67;1.27;;;;;;;13.36;48.30;99231.00;5539801;25;20261;-81
2024/04/10 10:15:42;;;;;;;3.53;1.37;;;;;;;13.29;49.37;99245.63;5538439;25;20226;-81
2024/04/10 10:18:08;;;;;;;2.60;1.40;;;;;;;13.16;48.93;99260.63;5537820;25;20226;-82
2024/04/10 10:20:36;;;;;;;2.63;1.20;;;;;;;13.04;49.25;99246.31;5538881;25;20313;-81
2024/04/10 10:23:05;;;;;;;3.27;1.20;;;;;;;13.01;50.72;99266.88;5537458;26;20318;-82
2024/04/10 10:25:36;;;;;;;4.37;1.50;;;;;;;12.94;50.75;99269.00;5557557;25;20241;-82
2024/04/10 10:28:06;;;;;;;2.23;1.43;;;;;;;12.93;49.94;99263.78;5561396;25;20346;-83
2024/04/10 10:30:37;;;;;;;2.93;1.43;;;;;;;13.13;50.94;99271.41;5551976;25;20237;-82
2024/04/10 10:33:04;;;;;;;5.30;1.30;;;;;;;13.48;51.35;99276.25;5574368;25;20264;-80
2024/04/10 10:35:32;;;;;;;2.20;1.23;;;;;;;13.90;50.74;99262.91;5574238;25;20276;-82
2024/04/10 10:37:58;;;;;;;4.50;1.50;;;;;;;14.12;49.39;99255.19;5574613;25;20264;-80
2024/04/10 10:40:27;;;;;;;3.67;1.40;;;;;;;14.03;47.93;99239.00;5576576;25;20313;-79
2024/04/10 10:43:00;;;;;;;6.17;1.80;;;;;;;13.61;48.64;99252.41;5579299;25;20217;-81
2024/04/10 10:45:29;;;;;;;5.10;1.93;;;;;;;13.53;49.34;99254.72;5582956;25;20221;-80
2024/04/10 10:47:57;;;;;;;4.33;1.43;;;;;;;13.27;48.62;99251.03;5573566;25;20269;-80
2024/04/10 10:50:26;;;;;;;2.63;1.20;;;;;;;13.10;49.08;99240.63;5571010;25;20236;-80
2024/04/10 10:52:53;;;;;;;4.07;1.40;;;;;;;13.01;49.46;99245.66;5577728;25;20304;-79
2024/04/10 10:55:21;;;;;;;4.20;1.40;;;;;;;13.09;49.68;99241.53;5577614;25;20264;-79
2024/04/10 10:57:47;;;;;;;3.43;1.53;;;;;;;13.14;48.97;99233.31;5575937;25;20309;-79
2024/04/10 11:00:17;;;;;;;5.10;1.30;;;;;;;13.12;48.05;99228.09;5580456;25;20260;-80
2024/04/10 11:02:43;;;;;;;2.67;1.60;;;;;;;13.44;49.67;99237.53;5586840;25;20284;-79
2024/04/10 11:05:15;;;;;;;6.60;1.80;;;;;;;13.61;49.62;99229.38;5587708;25;20213;-79
2024/04/10 11:07:41;;;;;;;6.23;1.97;;;;;;;13.98;47.97;99220.72;5587318;25;20206;-78
2024/04/10 11:10:11;;;;;;;4.87;1.87;;;;;;;13.81;47.87;99207.66;5586319;25;20228;-79
2024/04/10 11:12:37;;;;;;;4.87;1.50;;;;;;;13.79;47.61;99214.91;5585003;25;20209;-80
2024/04/10 11:15:10;;;;;;;3.63;1.67;;;;;;;13.75;47.94;99212.53;5585454;25;20216;-79
2024/04/10 11:17:38;;;;;;;2.23;1.30;;;;;;;13.50;47.98;99217.72;5571894;25;20217;-80
2024/04/10 11:20:11;;;;;;;3.57;1.33;;;;;;;13.73;47.85;99215.28;5562632;25;20283;-80
2024/04/10 11:22:39;;;;;;;2.93;1.47;;;;;;;13.97;46.46;99199.53;5561689;25;20229;-79
2024/04/10 11:25:07;;;;;;;3.30;1.77;;;;;;;13.95;45.08;99198.81;5561351;25;20271;-79
2024/04/10 11:27:33;;;;;;;3.67;1.30;;;;;;;13.95;45.13;99201.47;5564041;25;20260;-79
2024/04/10 11:30:01;;;;;;;2.80;1.20;;;;;;;13.97;46.55;99212.81;5562688;25;20319;-79
2024/04/10 11:32:27;;;;;;;2.90;1.00;;;;;;;14.03;45.77;99201.78;5564548;25;20248;-79
2024/04/10 11:34:58;;;;;;;4.20;1.53;;;;;;;14.10;44.08;99193.31;5562129;25;20224;-79
2024/04/10 11:37:24;;;;;;;2.80;1.23;;;;;;;14.12;45.06;99201.19;5560806;25;20323;-79
2024/04/10 11:39:54;;;;;;;2.93;1.40;;;;;;;14.25;44.83;99197.63;5560338;25;20237;-78
2024/04/10 11:42:20;;;;;;;2.70;1.30;;;;;;;14.38;45.50;99197.66;5563194;25;20324;-78
2024/04/10 11:44:48;;;;;;;3.17;1.20;;;;;;;14.60;45.27;99211.22;5564707;25;20232;-77
2024/04/10 11:47:14;;;;;;;3.93;1.60;;;;;;;14.88;44.19;99192.38;5563834;25;20268;-77